Noojee Slivar, Victoria

10:05 AM AEDT on November 28, 2014 (GMT +1100)
Neerim East, Australia | Change Station
CLOSE
Current Station
Personal Weather Station
Location: Neerim East, VICTORIA
Elevation: 1181 ft
Nearby Weather Stations

Elev 1181 ft 37.95 °S, 146.00 °E | Updated 20 seconds ago

Overcast
Overcast
52.1 °F
Feels Like 52.1 °F
N
1.8
Wind Variable Wind from SSW
Gusts 3.5 mph

Today
High -- | Low -- °F
--% Chance of Precip.
Yesterday
High -- | Low -- °F
Precip. -- in
5:48 AM 8:19 PM
Waxing Crescent, 33% visible
Pressure 30.21 in
Visibility 6.2 miles
Clouds Overcast 2000 ft
Dew Point 50 °F
Humidity 93%
Rainfall 0.00 in
Snow Depth Not available.
UV 3.9 out of 12
Pollen Not available.
Air Quality Not available.
Flu Activity Not available.
METAR YMEN 272300Z AUTO 11005KT 9999 // OVC020 15/09 Q1023

More Conditions Fewer Conditions

Pressure 30.21 in
Visibility 6.2 miles
Clouds Overcast 2000 ft
Dew Point 50 °F
Humidity 93%
Rainfall 0.00 in
Snow Depth Not available.
UV 3.9 out of 12
Pollen Not available.
Air Quality Not available.
Flu Activity Not available.
METAR YMEN 272300Z AUTO 11005KT 9999 // OVC020 15/09 Q1023

More Conditions Fewer Conditions

10-Day Weather Forecast

Almanac

Astronomy

Nov. 28, 2014 Rise Set
Actual Time
Civil Twilight
Nautical Twilight
Astronomical Twilight
Moon
Length of Visible Light
Length of Day
Tomorrow will be .
, % of the Moon is Illuminated

Today's Extremes

Country Highs Country Lows

Community

WunderPhotos

Upload Photos

1,774,134 photos uploaded!

WunderBlogs® & News

Nearby

Air Quality

  Air Quality AQ Index Pollutant
Not available.

Snow Depth

Station Depth Elevation

Earthquake Activity

City Distance Mag. Time & Date
Minimum magnitude displayed is 2.5.

Coastal Water Temperatures

Place Temperature

Nearby Weather Stations